Time;durP1;ratioP1;P1;durP2;ratioP2;P2;SDS_P1;SDS_P2;PMS_P1;PMS_P2;Temp;Humidity;BMP_temperature;BMP_pressure;BME280_temperature;BME280_humidity;BME280_pressure;Samples;Min_cycle;Max_cycle;Signal;HPM_P1;HPM_P2
2022/09/26 00:02:13;;;;;;;26.80;13.37;;;;;;;;;;5034889;28;20023;-72
2022/09/26 00:04:39;;;;;;;24.02;13.50;;;;;;;;;;5029509;28;20243;-72
2022/09/26 00:07:04;;;;;;;24.27;13.98;;;;;;;;;;5025812;28;20503;-70
2022/09/26 00:09:29;;;;;;;29.88;13.15;;;;;;;;;;5027496;28;20547;-71
2022/09/26 00:11:54;;;;;;;26.98;13.43;;;;;;;;;;5028697;28;20445;-71
2022/09/26 00:14:21;;;;;;;24.20;13.02;;;;;;;;;;5028195;28;20022;-71
2022/09/26 00:16:47;;;;;;;41.88;14.85;;;;;;;;;;5028562;28;20018;-70
2022/09/26 00:19:12;;;;;;;23.00;14.18;;;;;;;;;;5027518;28;20040;-73
2022/09/26 00:21:37;;;;;;;32.15;12.82;;;;;;;;;;5029316;28;20021;-73
2022/09/26 00:24:03;;;;;;;27.08;12.63;;;;;;;;;;5027590;28;20021;-70
2022/09/26 00:26:29;;;;;;;28.85;12.93;;;;;;;;;;5025925;28;20029;-69
2022/09/26 00:28:55;;;;;;;24.65;12.20;;;;;;;;;;5029013;28;20024;-68
2022/09/26 00:31:26;;;;;;;21.92;12.35;;;;;;;;;;5028969;28;20399;-72
2022/09/26 00:33:51;;;;;;;23.90;12.93;;;;;;;;;;5029036;28;20018;-72
2022/09/26 00:36:17;;;;;;;21.73;12.50;;;;;;;;;;5028435;28;20445;-72
2022/09/26 00:38:42;;;;;;;24.48;12.18;;;;;;;;;;5027558;28;20034;-72
2022/09/26 00:41:08;;;;;;;22.33;13.07;;;;;;;;;;5027121;28;20029;-71
2022/09/26 00:43:34;;;;;;;23.48;12.88;;;;;;;;;;5028367;28;20081;-72
2022/09/26 00:46:15;;;;;;;20.30;12.32;;;;;;;;;;5027867;28;20391;-71
2022/09/26 00:48:42;;;;;;;20.95;12.13;;;;;;;;;;5027963;28;20058;-69
2022/09/26 00:51:07;;;;;;;24.60;13.60;;;;;;;;;;5028767;28;20071;-70
2022/09/26 00:53:37;;;;;;;24.50;13.27;;;;;;;;;;5027261;28;20146;-73
2022/09/26 00:56:06;;;;;;;24.58;12.27;;;;;;;;;;5030730;28;20048;-72
2022/09/26 00:58:37;;;;;;;23.60;12.32;;;;;;;;;;5031315;28;20017;-71
2022/09/26 01:01:02;;;;;;;28.77;12.07;;;;;;;;;;5031912;28;20018;-68
2022/09/26 01:03:29;;;;;;;26.00;12.77;;;;;;;;;;5032110;28;20013;-69
2022/09/26 01:05:55;;;;;;;25.67;14.48;;;;;;;;;;5032101;28;20482;-71
2022/09/26 01:08:24;;;;;;;22.05;13.07;;;;;;;;;;5031552;28;20033;-71
2022/09/26 01:10:49;;;;;;;26.55;13.00;;;;;;;;;;5030734;28;20025;-70
2022/09/26 01:13:14;;;;;;;25.75;13.20;;;;;;;;;;5031887;28;20037;-72
2022/09/26 01:15:40;;;;;;;21.40;12.73;;;;;;;;;;5031076;28;20510;-69
2022/09/26 01:18:06;;;;;;;23.47;12.40;;;;;;;;;;5029655;28;20029;-72
2022/09/26 01:20:37;;;;;;;23.20;13.13;;;;;;;;;;5031752;28;20247;-70
2022/09/26 01:23:21;;;;;;;24.15;12.18;;;;;;;;;;5032044;28;20021;-68
2022/09/26 01:26:05;;;;;;;25.20;12.23;;;;;;;;;;5030351;28;20079;-71
2022/09/26 01:28:49;;;;;;;24.25;11.88;;;;;;;;;;5031101;28;20070;-72
2022/09/26 01:31:22;;;;;;;22.23;11.73;;;;;;;;;;5031168;28;20025;-71
2022/09/26 01:34:01;;;;;;;24.52;12.85;;;;;;;;;;5031744;28;20014;-68
2022/09/26 01:36:26;;;;;;;27.85;13.00;;;;;;;;;;5030821;28;20033;-72
2022/09/26 01:38:59;;;;;;;23.97;12.77;;;;;;;;;;5028693;28;20009;-73
2022/09/26 01:41:43;;;;;;;29.65;13.50;;;;;;;;;;5022817;28;20258;-71
2022/09/26 01:44:21;;;;;;;26.73;13.75;;;;;;;;;;5030986;28;20063;-73
2022/09/26 01:47:09;;;;;;;27.73;14.68;;;;;;;;;;5030119;28;20029;-72
2022/09/26 01:49:53;;;;;;;28.25;16.13;;;;;;;;;;5031768;28;20033;-72
2022/09/26 01:52:19;;;;;;;31.70;16.25;;;;;;;;;;5020852;28;20398;-70
2022/09/26 01:54:51;;;;;;;32.25;16.42;;;;;;;;;;5030979;28;20029;-71
2022/09/26 01:57:20;;;;;;;28.58;15.48;;;;;;;;;;5029297;28;20597;-71
2022/09/26 01:59:47;;;;;;;34.03;16.77;;;;;;;;;;5030708;28;20024;-68
2022/09/26 02:02:25;;;;;;;31.92;16.15;;;;;;;;;;5029051;28;20040;-68
2022/09/26 02:04:56;;;;;;;35.77;15.33;;;;;;;;;;5029913;28;20116;-71
2022/09/26 02:07:30;;;;;;;36.63;17.30;;;;;;;;;;5030411;28;20459;-69
2022/09/26 02:10:01;;;;;;;31.38;16.10;;;;;;;;;;5030108;28;20392;-72
2022/09/26 02:12:31;;;;;;;34.85;16.10;;;;;;;;;;5030385;28;20045;-72
2022/09/26 02:14:59;;;;;;;34.70;17.30;;;;;;;;;;5030370;28;20605;-72
2022/09/26 02:17:27;;;;;;;36.23;16.17;;;;;;;;;;5029115;28;20486;-70
2022/09/26 02:20:00;;;;;;;37.67;16.67;;;;;;;;;;5030031;28;20318;-71
2022/09/26 02:22:30;;;;;;;42.10;16.52;;;;;;;;;;5029855;28;20076;-69
2022/09/26 02:24:55;;;;;;;30.35;15.93;;;;;;;;;;5029746;28;20108;-71
2022/09/26 02:27:21;;;;;;;35.35;16.40;;;;;;;;;;5028930;28;20581;-71
2022/09/26 02:29:46;;;;;;;28.80;14.95;;;;;;;;;;5021007;28;20017;-68
2022/09/26 02:32:14;;;;;;;35.83;15.60;;;;;;;;;;5030221;28;20080;-73
2022/09/26 02:34:44;;;;;;;30.95;16.38;;;;;;;;;;5030310;28;20028;-70
2022/09/26 02:37:11;;;;;;;35.25;14.93;;;;;;;;;;5028403;28;20104;-72
2022/09/26 02:39:36;;;;;;;35.20;16.40;;;;;;;;;;5030707;28;20071;-72
2022/09/26 02:42:01;;;;;;;28.15;15.45;;;;;;;;;;5029368;28;20026;-71
2022/09/26 02:44:29;;;;;;;34.25;16.02;;;;;;;;;;5029967;28;20075;-71
2022/09/26 02:46:55;;;;;;;34.08;16.70;;;;;;;;;;5029388;28;20254;-72
2022/09/26 02:49:27;;;;;;;31.15;15.48;;;;;;;;;;5029825;28;20033;-73
2022/09/26 02:52:01;;;;;;;36.00;15.85;;;;;;;;;;5030358;28;20100;-69
2022/09/26 02:54:32;;;;;;;36.75;16.73;;;;;;;;;;5029948;28;20029;-73
2022/09/26 02:56:57;;;;;;;32.17;15.70;;;;;;;;;;5022933;28;20474;-73
2022/09/26 02:59:33;;;;;;;30.80;14.13;;;;;;;;;;5029778;28;20092;-74
2022/09/26 03:02:18;;;;;;;33.72;14.45;;;;;;;;;;5017674;28;20243;-71
2022/09/26 03:04:47;;;;;;;34.53;14.32;;;;;;;;;;5029259;28;20494;-70
2022/09/26 03:07:12;;;;;;;;;;;;;;;;;;5029742;28;20052;-71
2022/09/26 03:09:38;;;;;;;33.57;14.83;;;;;;;;;;5029362;28;19948;-68
2022/09/26 03:12:05;;;;;;;29.00;13.73;;;;;;;;;;5027999;28;20274;-69
2022/09/26 03:14:32;;;;;;;36.28;15.25;;;;;;;;;;5029292;28;20387;-72
2022/09/26 03:16:57;;;;;;;32.55;14.32;;;;;;;;;;5028583;28;20075;-71
2022/09/26 03:19:26;;;;;;;30.48;15.07;;;;;;;;;;5028572;28;20026;-71
2022/09/26 03:21:51;;;;;;;30.42;14.13;;;;;;;;;;5029941;28;20049;-73
2022/09/26 03:24:17;;;;;;;29.90;15.73;;;;;;;;;;5029800;28;20049;-71
2022/09/26 03:26:42;;;;;;;36.42;16.17;;;;;;;;;;5027185;28;20227;-71
2022/09/26 03:29:08;;;;;;;33.78;13.32;;;;;;;;;;5027984;28;20095;-71
2022/09/26 03:31:33;;;;;;;30.08;14.13;;;;;;;;;;5029347;28;20028;-70
2022/09/26 03:33:58;;;;;;;31.40;13.73;;;;;;;;;;5028648;28;20660;-70
2022/09/26 03:36:23;;;;;;;38.13;15.55;;;;;;;;;;5028717;28;20424;-70
2022/09/26 03:38:48;;;;;;;31.83;14.75;;;;;;;;;;5023714;28;20024;-72
2022/09/26 03:41:13;;;;;;;33.38;13.93;;;;;;;;;;5019393;28;20389;-72
2022/09/26 03:43:42;;;;;;;32.90;14.55;;;;;;;;;;5029786;28;20048;-72
2022/09/26 03:46:08;;;;;;;27.38;14.15;;;;;;;;;;5028956;28;20072;-69
2022/09/26 03:48:33;;;;;;;35.15;14.32;;;;;;;;;;5028576;28;20053;-69
2022/09/26 03:51:02;;;;;;;35.63;13.48;;;;;;;;;;5028288;28;20395;-72
2022/09/26 03:53:27;;;;;;;;;;;;;;;;;;5028750;28;20025;-66
2022/09/26 03:55:53;;;;;;;34.15;14.15;;;;;;;;;;5027328;28;19965;-69
2022/09/26 03:58:18;;;;;;;32.08;15.38;;;;;;;;;;5028520;28;20033;-68
2022/09/26 04:00:43;;;;;;;41.00;15.00;;;;;;;;;;5028459;28;20021;-71
2022/09/26 04:03:09;;;;;;;34.08;14.80;;;;;;;;;;5027637;28;20018;-71
2022/09/26 04:05:34;;;;;;;40.13;13.65;;;;;;;;;;5028523;28;20063;-71
2022/09/26 04:08:01;;;;;;;27.85;13.35;;;;;;;;;;5028557;28;20498;-72
2022/09/26 04:10:27;;;;;;;30.95;15.02;;;;;;;;;;5027929;28;20072;-70
2022/09/26 04:12:52;;;;;;;34.67;12.77;;;;;;;;;;5029085;28;20155;-72
2022/09/26 04:15:17;;;;;;;31.00;12.57;;;;;;;;;;5028846;28;20022;-69
2022/09/26 04:17:42;;;;;;;32.05;13.25;;;;;;;;;;5027683;28;20028;-68
2022/09/26 04:20:08;;;;;;;30.33;12.82;;;;;;;;;;5028017;28;20076;-72
2022/09/26 04:22:33;;;;;;;36.03;13.25;;;;;;;;;;5028912;28;20100;-72
2022/09/26 04:24:59;;;;;;;36.00;13.07;;;;;;;;;;5028251;28;20495;-70
2022/09/26 04:27:25;;;;;;;24.17;11.88;;;;;;;;;;5027520;28;20023;-71
2022/09/26 04:29:51;;;;;;;28.55;12.43;;;;;;;;;;5030606;28;20026;-72
2022/09/26 04:32:16;;;;;;;26.58;12.85;;;;;;;;;;5031003;28;20074;-72
2022/09/26 04:34:41;;;;;;;39.50;13.70;;;;;;;;;;5030162;28;20136;-69
2022/09/26 04:37:07;;;;;;;28.33;13.05;;;;;;;;;;5034211;28;20021;-72
2022/09/26 04:39:34;;;;;;;27.63;12.00;;;;;;;;;;5033322;28;20029;-71
2022/09/26 04:42:00;;;;;;;36.42;13.52;;;;;;;;;;5031060;28;20541;-73
2022/09/26 04:44:25;;;;;;;31.10;12.90;;;;;;;;;;5030852;28;20033;-71
2022/09/26 04:46:50;;;;;;;27.20;12.67;;;;;;;;;;5037527;28;20026;-68
2022/09/26 04:49:15;;;;;;;24.50;13.13;;;;;;;;;;5035245;28;20254;-72
2022/09/26 04:51:40;;;;;;;28.65;13.25;;;;;;;;;;5042423;28;20537;-68
2022/09/26 04:54:07;;;;;;;29.90;12.75;;;;;;;;;;5055087;22;20076;-70
2022/09/26 04:56:32;;;;;;;38.47;13.45;;;;;;;;;;5009417;28;20028;-70
2022/09/26 04:58:58;;;;;;;27.00;12.82;;;;;;;;;;5012829;28;20159;-71
2022/09/26 05:01:24;;;;;;;37.08;15.13;;;;;;;;;;5006551;28;20057;-72
2022/09/26 05:03:49;;;;;;;32.35;14.57;;;;;;;;;;5010888;28;20079;-70
2022/09/26 05:06:16;;;;;;;28.20;13.65;;;;;;;;;;5012549;28;20029;-71
2022/09/26 05:08:45;;;;;;;47.83;15.30;;;;;;;;;;5011505;28;20499;-68
2022/09/26 05:11:10;;;;;;;36.47;13.52;;;;;;;;;;5013289;28;20472;-72
2022/09/26 05:13:36;;;;;;;30.38;12.85;;;;;;;;;;5017629;28;20036;-72
2022/09/26 05:16:02;;;;;;;32.33;13.90;;;;;;;;;;5021176;28;20101;-70
2022/09/26 05:18:28;;;;;;;33.38;13.50;;;;;;;;;;5010806;28;20160;-71
2022/09/26 05:20:53;;;;;;;29.40;13.27;;;;;;;;;;5015373;28;20089;-69
2022/09/26 05:26:20;;;;;;;34.20;13.18;;;;;;;;;;5021810;28;20032;-70
2022/09/26 05:28:50;;;;;;;35.08;11.50;;;;;;;;;;5012162;28;20041;-70
2022/09/26 05:31:16;;;;;;;29.85;10.98;;;;;;;;;;5007534;28;20026;-70
2022/09/26 05:33:43;;;;;;;35.88;12.38;;;;;;;;;;5009750;28;20481;-72
2022/09/26 05:36:08;;;;;;;30.65;12.27;;;;;;;;;;5011784;28;20029;-70
2022/09/26 05:38:33;;;;;;;36.72;12.50;;;;;;;;;;5013302;28;20021;-73
2022/09/26 05:40:59;;;;;;;38.70;13.10;;;;;;;;;;5009750;28;20108;-72
2022/09/26 05:43:26;;;;;;;28.30;11.70;;;;;;;;;;5005239;28;20025;-68
2022/09/26 05:45:55;;;;;;;36.67;10.75;;;;;;;;;;5018255;28;20708;-72
2022/09/26 05:48:20;;;;;;;28.33;10.98;;;;;;;;;;5018962;28;20025;-70
2022/09/26 05:50:45;;;;;;;32.08;11.85;;;;;;;;;;5009886;28;20030;-72
2022/09/26 05:53:10;;;;;;;44.17;12.50;;;;;;;;;;5016866;28;20065;-71
2022/09/26 05:55:38;;;;;;;25.23;10.27;;;;;;;;;;5016498;28;20026;-70
2022/09/26 05:58:05;;;;;;;20.23;9.00;;;;;;;;;;5010604;28;20558;-71
2022/09/26 06:00:30;;;;;;;22.85;9.55;;;;;;;;;;5008761;28;20214;-74
2022/09/26 06:02:56;;;;;;;33.08;8.93;;;;;;;;;;5010311;28;20631;-72
2022/09/26 06:05:22;;;;;;;28.35;9.45;;;;;;;;;;5023725;28;20053;-73
2022/09/26 06:07:47;;;;;;;19.40;8.73;;;;;;;;;;5009692;28;20395;-71
2022/09/26 06:10:12;;;;;;;19.48;8.45;;;;;;;;;;5009896;28;20490;-72
2022/09/26 06:12:38;;;;;;;23.83;8.88;;;;;;;;;;5011398;28;20025;-71
2022/09/26 06:15:04;;;;;;;23.83;8.57;;;;;;;;;;5011085;28;20153;-73
2022/09/26 06:17:29;;;;;;;23.65;7.90;;;;;;;;;;5010913;28;20021;-73
2022/09/26 06:19:55;;;;;;;21.45;7.70;;;;;;;;;;5009684;28;20029;-71
2022/09/26 06:22:20;;;;;;;18.63;7.10;;;;;;;;;;5011183;28;20052;-73
2022/09/26 06:24:45;;;;;;;28.85;9.32;;;;;;;;;;5012109;28;20033;-73
2022/09/26 06:27:10;;;;;;;25.50;6.97;;;;;;;;;;5011616;28;20026;-72
2022/09/26 06:29:36;;;;;;;23.77;8.73;;;;;;;;;;5015177;28;20022;-70
2022/09/26 06:32:01;;;;;;;21.83;6.53;;;;;;;;;;5013924;28;20029;-72
2022/09/26 06:34:27;;;;;;;16.83;6.95;;;;;;;;;;5012200;28;20098;-70
2022/09/26 06:36:52;;;;;;;18.10;6.60;;;;;;;;;;5010412;28;20037;-73
2022/09/26 06:39:17;;;;;;;21.48;6.68;;;;;;;;;;5010839;28;20034;-71
2022/09/26 06:41:42;;;;;;;16.90;7.15;;;;;;;;;;5009905;28;20125;-71
2022/09/26 06:44:07;;;;;;;26.40;7.45;;;;;;;;;;5010900;28;20022;-71
2022/09/26 06:46:33;;;;;;;31.02;7.10;;;;;;;;;;5009760;28;20523;-68
2022/09/26 06:48:58;;;;;;;25.10;7.90;;;;;;;;;;5008735;28;20021;-72
2022/09/26 06:51:23;;;;;;;31.88;11.32;;;;;;;;;;5009924;28;20026;-71
2022/09/26 06:53:48;;;;;;;37.33;12.05;;;;;;;;;;5010521;28;20014;-74
2022/09/26 06:56:13;;;;;;;84.90;33.00;;;;;;;;;;5009623;28;20037;-73
2022/09/26 06:58:39;;;;;;;61.80;23.95;;;;;;;;;;5009726;28;20018;-72
2022/09/26 07:01:05;;;;;;;76.55;29.77;;;;;;;;;;5006776;28;20262;-69
2022/09/26 07:03:30;;;;;;;70.43;25.60;;;;;;;;;;5008280;28;20441;-73
2022/09/26 07:05:56;;;;;;;50.00;21.45;;;;;;;;;;5009610;28;20076;-72
2022/09/26 07:08:21;;;;;;;56.00;21.65;;;;;;;;;;5008188;28;20018;-69
2022/09/26 07:10:47;;;;;;;61.40;26.42;;;;;;;;;;5010668;28;20021;-72
2022/09/26 07:13:14;;;;;;;16.02;7.43;;;;;;;;;;5010351;28;20456;-70
2022/09/26 07:15:43;;;;;;;36.08;12.63;;;;;;;;;;5010211;28;20017;-73
2022/09/26 07:18:08;;;;;;;44.55;20.15;;;;;;;;;;5008530;28;20507;-73
2022/09/26 07:20:35;;;;;;;75.38;33.15;;;;;;;;;;5009856;28;20054;-70
2022/09/26 07:23:01;;;;;;;59.88;27.00;;;;;;;;;;5009483;28;20033;-72
2022/09/26 07:25:28;;;;;;;19.17;7.15;;;;;;;;;;5010674;28;20014;-73
2022/09/26 07:27:53;;;;;;;26.10;8.80;;;;;;;;;;5008651;28;20021;-70
2022/09/26 07:30:18;;;;;;;39.77;6.67;;;;;;;;;;5009929;28;20026;-73
2022/09/26 07:32:45;;;;;;;54.15;7.45;;;;;;;;;;5004529;28;20279;-72
2022/09/26 07:35:10;;;;;;;23.25;6.95;;;;;;;;;;5007807;28;20130;-73
2022/09/26 07:37:36;;;;;;;28.48;5.97;;;;;;;;;;5009108;28;20093;-72
2022/09/26 07:40:01;;;;;;;15.38;5.80;;;;;;;;;;5009154;28;20023;-73
2022/09/26 07:42:26;;;;;;;16.73;4.88;;;;;;;;;;5009681;28;20631;-72
2022/09/26 07:44:51;;;;;;;18.90;5.53;;;;;;;;;;5010030;28;20025;-71
2022/09/26 07:50:10;;;;;;;17.73;4.35;;;;;;;;;;5010578;28;20056;-73
2022/09/26 07:52:35;;;;;;;18.92;4.45;;;;;;;;;;5009896;28;20049;-73
2022/09/26 07:55:00;;;;;;;27.13;4.22;;;;;;;;;;5010006;28;20068;-73
2022/09/26 07:57:25;;;;;;;65.35;8.73;;;;;;;;;;5010553;28;20022;-73
2022/09/26 07:59:52;;;;;;;13.70;5.53;;;;;;;;;;5009471;28;20057;-73
2022/09/26 08:02:21;;;;;;;18.15;4.35;;;;;;;;;;5010206;28;20014;-71
2022/09/26 08:04:47;;;;;;;20.40;6.10;;;;;;;;;;5011543;28;20276;-71
2022/09/26 08:07:13;;;;;;;18.77;3.85;;;;;;;;;;5013158;28;20064;-72
2022/09/26 08:09:38;;;;;;;16.13;3.72;;;;;;;;;;5013770;28;20022;-74
2022/09/26 08:12:04;;;;;;;55.95;25.08;;;;;;;;;;5013282;28;20022;-72
2022/09/26 08:14:29;;;;;;;9.38;3.30;;;;;;;;;;5013860;28;20109;-72
2022/09/26 08:16:55;;;;;;;15.48;4.13;;;;;;;;;;5013608;28;20018;-72
2022/09/26 08:19:21;;;;;;;13.68;4.50;;;;;;;;;;5014460;28;20360;-73
2022/09/26 08:21:47;;;;;;;9.38;3.20;;;;;;;;;;5013237;28;20642;-70
2022/09/26 08:24:13;;;;;;;9.57;2.72;;;;;;;;;;5013056;28;20110;-74
2022/09/26 08:26:39;;;;;;;19.83;6.88;;;;;;;;;;5011884;28;20014;-73
2022/09/26 08:29:10;;;;;;;12.63;3.38;;;;;;;;;;5002871;28;20100;-70
2022/09/26 08:31:35;;;;;;;14.07;3.78;;;;;;;;;;5012979;28;20021;-72
2022/09/26 08:34:01;;;;;;;9.38;2.85;;;;;;;;;;5013275;28;20021;-73
2022/09/26 08:36:26;;;;;;;11.20;3.65;;;;;;;;;;5011599;28;20102;-71
2022/09/26 08:38:51;;;;;;;18.00;4.22;;;;;;;;;;5013437;28;20535;-74
2022/09/26 08:41:17;;;;;;;14.70;5.30;;;;;;;;;;5013205;28;20094;-71
2022/09/26 08:43:52;;;;;;;16.27;4.97;;;;;;;;;;5012025;28;20105;-74
2022/09/26 08:46:50;;;;;;;20.75;4.28;;;;;;;;;;5013224;28;20480;-75
2022/09/26 08:49:30;;;;;;;16.17;3.72;;;;;;;;;;5004961;28;20442;-74
2022/09/26 08:51:57;;;;;;;7.60;2.70;;;;;;;;;;5014859;28;20090;-73
2022/09/26 08:54:31;;;;;;;10.80;2.20;;;;;;;;;;5017035;28;20030;-72
2022/09/26 08:56:59;;;;;;;10.70;2.20;;;;;;;;;;5012416;28;20010;-72
2022/09/26 08:59:26;;;;;;;28.95;6.15;;;;;;;;;;5013135;28;20109;-73
2022/09/26 09:01:53;;;;;;;8.20;2.10;;;;;;;;;;5012337;28;20014;-73
2022/09/26 09:04:22;;;;;;;13.32;2.17;;;;;;;;;;5013489;28;20077;-72
2022/09/26 09:06:50;;;;;;;10.93;2.45;;;;;;;;;;5011293;28;20110;-74
2022/09/26 09:09:16;;;;;;;22.88;4.30;;;;;;;;;;5013583;28;20025;-72
2022/09/26 09:11:41;;;;;;;32.10;4.70;;;;;;;;;;5012375;28;20018;-73
2022/09/26 09:14:20;;;;;;;20.40;3.67;;;;;;;;;;5013345;28;20077;-71
2022/09/26 09:16:50;;;;;;;12.50;3.17;;;;;;;;;;4999038;28;20247;-72
2022/09/26 09:19:27;;;;;;;8.57;2.67;;;;;;;;;;5013043;28;20026;-73
2022/09/26 09:22:11;;;;;;;10.40;2.97;;;;;;;;;;5012154;28;20041;-74
2022/09/26 09:24:37;;;;;;;30.95;2.97;;;;;;;;;;5013326;28;20022;-73
2022/09/26 09:27:14;;;;;;;13.73;2.43;;;;;;;;;;5011877;28;20483;-71
2022/09/26 09:29:55;;;;;;;15.27;3.63;;;;;;;;;;5013063;28;20243;-73
2022/09/26 09:32:24;;;;;;;17.08;3.33;;;;;;;;;;5009592;28;20092;-74
2022/09/26 09:34:50;;;;;;;31.67;5.72;;;;;;;;;;5009597;28;20022;-74
2022/09/26 09:37:19;;;;;;;19.50;4.93;;;;;;;;;;5011268;28;20048;-74
2022/09/26 09:39:46;;;;;;;10.95;2.95;;;;;;;;;;5002122;28;20018;-72
2022/09/26 09:42:17;;;;;;;20.13;5.03;;;;;;;;;;5010192;28;20603;-72
2022/09/26 09:44:43;;;;;;;10.38;2.80;;;;;;;;;;5013265;28;20030;-74
2022/09/26 09:47:15;;;;;;;12.48;2.80;;;;;;;;;;5011561;28;20032;-72
2022/09/26 09:49:45;;;;;;;10.90;3.10;;;;;;;;;;5012547;28;20026;-73
2022/09/26 09:52:18;;;;;;;14.75;2.95;;;;;;;;;;5011328;28;20092;-73
2022/09/26 09:54:59;;;;;;;17.35;4.45;;;;;;;;;;5011796;28;20060;-73
2022/09/26 09:57:30;;;;;;;14.68;3.33;;;;;;;;;;5010492;28;20089;-74
2022/09/26 10:00:07;;;;;;;8.60;2.97;;;;;;;;;;5011529;28;20096;-75
2022/09/26 10:02:46;;;;;;;8.85;2.63;;;;;;;;;;5011725;28;20084;-72
2022/09/26 10:05:32;;;;;;;6.57;2.65;;;;;;;;;;5012817;28;20029;-74
2022/09/26 10:07:58;;;;;;;9.07;3.08;;;;;;;;;;5011326;28;20052;-74
2022/09/26 10:10:34;;;;;;;14.90;3.05;;;;;;;;;;5012836;28;20419;-73
2022/09/26 10:12:59;;;;;;;12.35;3.85;;;;;;;;;;5010660;28;20114;-72
2022/09/26 10:15:26;;;;;;;8.05;2.80;;;;;;;;;;5013162;28;20113;-71
2022/09/26 10:18:05;;;;;;;7.82;2.70;;;;;;;;;;5011206;28;20490;-72
2022/09/26 10:20:39;;;;;;;7.57;2.38;;;;;;;;;;5010911;28;20014;-74
2022/09/26 10:23:09;;;;;;;10.30;2.45;;;;;;;;;;5010116;28;20556;-72
2022/09/26 10:25:34;;;;;;;7.80;2.25;;;;;;;;;;5011450;28;20029;-74
2022/09/26 10:28:00;;;;;;;14.13;2.80;;;;;;;;;;5004489;28;20566;-74
2022/09/26 10:30:32;;;;;;;10.95;2.88;;;;;;;;;;5004174;28;20076;-75
2022/09/26 10:32:58;;;;;;;12.13;2.55;;;;;;;;;;5002614;28;20023;-75
2022/09/26 10:35:28;;;;;;;6.65;2.38;;;;;;;;;;5008872;28;20537;-71
2022/09/26 10:38:00;;;;;;;15.35;3.55;;;;;;;;;;5010064;28;20083;-71
2022/09/26 10:40:51;;;;;;;13.73;2.50;;;;;;;;;;5010424;28;20026;-74
2022/09/26 10:43:17;;;;;;;13.48;2.65;;;;;;;;;;5001304;28;20034;-72
2022/09/26 10:45:42;;;;;;;7.80;2.37;;;;;;;;;;5012467;28;20036;-73
2022/09/26 10:48:10;;;;;;;18.33;3.40;;;;;;;;;;5013198;28;20255;-72
2022/09/26 10:50:35;;;;;;;11.67;2.53;;;;;;;;;;5009996;28;20573;-71
2022/09/26 10:53:07;;;;;;;8.93;2.30;;;;;;;;;;5009935;28;20026;-71
2022/09/26 10:55:38;;;;;;;6.82;1.88;;;;;;;;;;5030706;22;20455;-70
2022/09/26 10:58:05;;;;;;;20.85;2.53;;;;;;;;;;5045508;28;20033;-72
2022/09/26 11:00:37;;;;;;;8.02;2.15;;;;;;;;;;5052324;28;20040;-71
2022/09/26 11:03:04;;;;;;;11.00;2.63;;;;;;;;;;5030602;28;20036;-69
2022/09/26 11:08:17;;;;;;;11.63;2.72;;;;;;;;;;5038320;28;20102;-71
2022/09/26 11:10:44;;;;;;;12.88;3.10;;;;;;;;;;5036623;28;20499;-71
2022/09/26 11:13:20;;;;;;;10.15;2.78;;;;;;;;;;5034920;28;20021;-71
2022/09/26 11:15:51;;;;;;;13.05;2.38;;;;;;;;;;5033623;28;20074;-72
2022/09/26 11:18:25;;;;;;;7.03;2.15;;;;;;;;;;5029255;28;20017;-71
2022/09/26 11:20:52;;;;;;;19.25;2.58;;;;;;;;;;5046126;28;20037;-71
2022/09/26 11:23:26;;;;;;;7.65;1.98;;;;;;;;;;5031497;28;20410;-71
2022/09/26 11:25:54;;;;;;;6.57;2.25;;;;;;;;;;5035256;28;20025;-72
2022/09/26 11:28:23;;;;;;;10.15;2.13;;;;;;;;;;5030919;28;20051;-71
2022/09/26 11:30:51;;;;;;;7.35;2.40;;;;;;;;;;5032031;28;20025;-71
2022/09/26 11:33:17;;;;;;;8.38;2.28;;;;;;;;;;5020843;28;20028;-68
2022/09/26 11:35:43;;;;;;;9.05;2.28;;;;;;;;;;5047565;28;20032;-70
2022/09/26 11:38:17;;;;;;;5.65;2.13;;;;;;;;;;5048550;28;20020;-69
2022/09/26 11:41:03;;;;;;;8.75;2.42;;;;;;;;;;5015685;28;20021;-70
2022/09/26 11:43:38;;;;;;;16.42;3.75;;;;;;;;;;5013219;28;20026;-71
2022/09/26 11:46:06;;;;;;;8.85;2.35;;;;;;;;;;5049060;28;20021;-71
2022/09/26 11:48:40;;;;;;;14.77;2.25;;;;;;;;;;5014510;28;20025;-72
2022/09/26 11:51:30;;;;;;;7.60;2.28;;;;;;;;;;5029845;28;20018;-71
2022/09/26 11:53:55;;;;;;;10.00;2.58;;;;;;;;;;5031542;28;20028;-72
2022/09/26 11:56:36;;;;;;;14.50;2.70;;;;;;;;;;5037339;28;20095;-69
2022/09/26 11:59:14;;;;;;;7.03;1.98;;;;;;;;;;5028785;28;20255;-69
2022/09/26 12:01:54;;;;;;;6.78;1.67;;;;;;;;;;5046599;28;20032;-71
2022/09/26 12:04:20;;;;;;;9.10;1.65;;;;;;;;;;5036438;28;20017;-70
2022/09/26 12:07:06;;;;;;;10.13;2.10;;;;;;;;;;5028793;28;20048;-68
2022/09/26 12:09:56;;;;;;;10.05;1.55;;;;;;;;;;5029809;28;20021;-70
2022/09/26 12:12:30;;;;;;;9.57;1.77;;;;;;;;;;5041188;28;20017;-68
2022/09/26 12:15:10;;;;;;;9.32;2.05;;;;;;;;;;5048955;28;20025;-70
2022/09/26 12:17:47;;;;;;;14.13;2.38;;;;;;;;;;5033417;28;20486;-69
2022/09/26 12:20:21;;;;;;;11.77;2.50;;;;;;;;;;5029238;28;20083;-70
2022/09/26 12:23:06;;;;;;;10.93;2.00;;;;;;;;;;5046202;28;20017;-72
2022/09/26 12:25:35;;;;;;;7.05;2.33;;;;;;;;;;5034240;28;20116;-71
2022/09/26 12:28:15;;;;;;;4.88;1.70;;;;;;;;;;5024409;28;20079;-69
2022/09/26 12:30:52;;;;;;;5.07;2.13;;;;;;;;;;5025217;28;20767;-71
2022/09/26 12:33:32;;;;;;;9.35;2.13;;;;;;;;;;5020955;28;20024;-72
2022/09/26 12:36:03;;;;;;;8.07;2.28;;;;;;;;;;5023856;28;20048;-72
2022/09/26 12:38:56;;;;;;;8.18;2.30;;;;;;;;;;5053383;28;20017;-70
2022/09/26 12:41:32;;;;;;;4.07;1.58;;;;;;;;;;5016709;28;20114;-72
2022/09/26 12:43:58;;;;;;;7.20;1.70;;;;;;;;;;5037321;28;20483;-71
2022/09/26 12:46:30;;;;;;;7.60;1.52;;;;;;;;;;5048060;28;20025;-71
2022/09/26 12:49:00;;;;;;;5.35;1.70;;;;;;;;;;5042464;28;20032;-72
2022/09/26 12:51:32;;;;;;;4.25;1.50;;;;;;;;;;5032598;28;20026;-71
2022/09/26 12:54:12;;;;;;;8.75;2.10;;;;;;;;;;5056909;28;20029;-72
2022/09/26 12:56:49;;;;;;;13.90;1.80;;;;;;;;;;5043817;28;20116;-74
2022/09/26 12:59:21;;;;;;;9.38;1.70;;;;;;;;;;5053746;28;20024;-73
2022/09/26 13:02:05;;;;;;;9.48;1.88;;;;;;;;;;5042504;28;20021;-70
2022/09/26 13:04:36;;;;;;;5.75;2.55;;;;;;;;;;5032830;28;20111;-71
2022/09/26 13:07:02;;;;;;;6.90;2.00;;;;;;;;;;5039822;28;20013;-70
2022/09/26 13:09:42;;;;;;;17.23;2.78;;;;;;;;;;5050013;28;20017;-71
2022/09/26 13:12:17;;;;;;;14.30;2.50;;;;;;;;;;5013428;28;20021;-69
2022/09/26 13:15:01;;;;;;;5.88;1.67;;;;;;;;;;5051360;28;20024;-74
2022/09/26 13:17:34;;;;;;;3.92;1.58;;;;;;;;;;5037297;28;20022;-70
2022/09/26 13:20:13;;;;;;;2.50;1.40;;;;;;;;;;5032234;28;20014;-70
2022/09/26 13:22:41;;;;;;;23.25;1.90;;;;;;;;;;5047555;28;20396;-69
2022/09/26 13:25:10;;;;;;;3.65;1.80;;;;;;;;;;5023349;28;20021;-71
2022/09/26 13:27:41;;;;;;;3.70;1.60;;;;;;;;;;5030349;28;20021;-68
2022/09/26 13:30:12;;;;;;;7.28;2.00;;;;;;;;;;5043661;28;20025;-70
2022/09/26 13:32:46;;;;;;;4.03;1.83;;;;;;;;;;5029171;28;20107;-71
2022/09/26 13:35:15;;;;;;;4.32;1.88;;;;;;;;;;5025713;28;20399;-69
2022/09/26 13:38:08;;;;;;;8.48;1.80;;;;;;;;;;5029581;28;20021;-71
2022/09/26 13:40:42;;;;;;;12.90;1.67;;;;;;;;;;5032840;28;20028;-72
2022/09/26 13:43:07;;;;;;;7.07;2.20;;;;;;;;;;5043692;28;20021;-71
2022/09/26 13:45:47;;;;;;;6.40;1.60;;;;;;;;;;5046025;28;20025;-70
2022/09/26 13:48:23;;;;;;;10.95;2.13;;;;;;;;;;5026044;28;20033;-71
2022/09/26 13:50:54;;;;;;;13.02;2.33;;;;;;;;;;5043620;28;20108;-72
2022/09/26 13:53:25;;;;;;;5.00;1.77;;;;;;;;;;5034289;28;20018;-71
2022/09/26 13:56:09;;;;;;;4.43;2.28;;;;;;;;;;5049653;28;20387;-69
2022/09/26 13:58:38;;;;;;;5.78;1.88;;;;;;;;;;5040062;28;20021;-69
2022/09/26 14:01:03;;;;;;;;;;;;;;;;;;5042243;28;20024;-70
2022/09/26 14:03:36;;;;;;;9.45;2.17;;;;;;;;;;5032409;28;20378;-71
2022/09/26 14:06:08;;;;;;;9.02;2.70;;;;;;;;;;5046210;28;20486;-70
2022/09/26 14:11:26;;;;;;;10.82;2.03;;;;;;;;;;5033923;28;20094;-69
2022/09/26 14:14:11;;;;;;;10.38;2.20;;;;;;;;;;5028651;28;20471;-70
2022/09/26 14:16:36;;;;;;;8.00;2.20;;;;;;;;;;5023657;28;20029;-73
2022/09/26 14:19:08;;;;;;;10.25;2.28;;;;;;;;;;5036568;28;20052;-68
2022/09/26 14:21:33;;;;;;;5.82;1.85;;;;;;;;;;5037622;28;20603;-70
2022/09/26 14:24:17;;;;;;;15.73;2.42;;;;;;;;;;5031668;28;20169;-70
2022/09/26 14:26:42;;;;;;;11.70;3.15;;;;;;;;;;5032775;28;20043;-72
2022/09/26 14:29:26;;;;;;;9.60;1.98;;;;;;;;;;5028910;28;20026;-69
2022/09/26 14:31:56;;;;;;;12.27;2.47;;;;;;;;;;5027606;28;20075;-70
2022/09/26 14:34:22;;;;;;;8.07;2.35;;;;;;;;;;5029619;28;20040;-66
2022/09/26 14:36:48;;;;;;;12.55;2.80;;;;;;;;;;5018189;28;20022;-69
2022/09/26 14:39:26;;;;;;;8.68;2.42;;;;;;;;;;5043003;28;20017;-69
2022/09/26 14:41:52;;;;;;;14.40;2.80;;;;;;;;;;5045427;28;20018;-70
2022/09/26 14:44:19;;;;;;;13.27;2.65;;;;;;;;;;5040223;28;20028;-71
2022/09/26 14:46:49;;;;;;;12.07;2.58;;;;;;;;;;5048115;28;20476;-68
2022/09/26 14:49:19;;;;;;;10.38;2.50;;;;;;;;;;5049893;28;20017;-67
2022/09/26 14:51:46;;;;;;;9.27;1.75;;;;;;;;;;5032174;28;20021;-72
2022/09/26 14:54:21;;;;;;;18.27;2.20;;;;;;;;;;5048428;28;20483;-71